sensor_id;sensor_type;location;lat;lon;timestamp;pressure;altitude;pressure_sealevel;temperature;humidity
8160;BME280;27404;52.398;9.646;2023-04-10T00:00:30;101729.66;;;2.55;100.00
8160;BME280;27404;52.398;9.646;2023-04-10T00:03:00;101727.97;;;2.54;100.00
8160;BME280;27404;52.398;9.646;2023-04-10T00:05:26;101729.53;;;2.57;100.00
8160;BME280;27404;52.398;9.646;2023-04-10T00:07:51;101725.44;;;2.53;100.00
8160;BME280;27404;52.398;9.646;2023-04-10T00:10:18;101727.50;;;2.77;100.00
8160;BME280;27404;52.398;9.646;2023-04-10T00:12:43;101724.94;;;2.75;100.00
8160;BME280;27404;52.398;9.646;2023-04-10T00:15:09;101730.56;;;2.82;100.00
8160;BME280;27404;52.398;9.646;2023-04-10T00:17:35;101715.81;;;2.94;100.00
8160;BME280;27404;52.398;9.646;2023-04-10T00:20:00;101718.19;;;2.98;100.00
8160;BME280;27404;52.398;9.646;2023-04-10T00:22:26;101711.94;;;2.97;100.00
8160;BME280;27404;52.398;9.646;2023-04-10T00:24:52;101709.72;;;2.92;100.00
8160;BME280;27404;52.398;9.646;2023-04-10T00:27:18;101714.69;;;2.79;100.00
8160;BME280;27404;52.398;9.646;2023-04-10T00:29:43;101700.09;;;2.72;100.00
8160;BME280;27404;52.398;9.646;2023-04-10T00:32:08;101705.81;;;2.69;100.00
8160;BME280;27404;52.398;9.646;2023-04-10T00:34:34;101701.75;;;2.64;100.00
8160;BME280;27404;52.398;9.646;2023-04-10T00:37:00;101696.34;;;2.64;100.00
8160;BME280;27404;52.398;9.646;2023-04-10T00:39:25;101702.81;;;2.72;100.00
8160;BME280;27404;52.398;9.646;2023-04-10T00:41:51;101697.59;;;2.78;100.00
8160;BME280;27404;52.398;9.646;2023-04-10T00:44:16;101699.09;;;2.73;100.00
8160;BME280;27404;52.398;9.646;2023-04-10T00:46:42;101695.09;;;2.77;100.00
8160;BME280;27404;52.398;9.646;2023-04-10T00:49:07;101696.84;;;2.86;100.00
8160;BME280;27404;52.398;9.646;2023-04-10T00:51:33;101701.25;;;2.87;100.00
8160;BME280;27404;52.398;9.646;2023-04-10T00:54:00;101703.34;;;3.02;100.00
8160;BME280;27404;52.398;9.646;2023-04-10T00:56:27;101700.44;;;2.95;100.00
8160;BME280;27404;52.398;9.646;2023-04-10T00:58:55;101701.25;;;2.87;100.00
8160;BME280;27404;52.398;9.646;2023-04-10T01:01:20;101709.47;;;2.86;100.00
8160;BME280;27404;52.398;9.646;2023-04-10T01:03:46;101705.31;;;2.91;100.00
8160;BME280;27404;52.398;9.646;2023-04-10T01:09:16;101706.34;;;2.72;100.00
8160;BME280;27404;52.398;9.646;2023-04-10T01:11:55;101703.91;;;2.61;100.00
8160;BME280;27404;52.398;9.646;2023-04-10T01:17:21;101704.00;;;2.77;100.00
8160;BME280;27404;52.398;9.646;2023-04-10T01:20:33;101703.25;;;2.85;100.00
8160;BME280;27404;52.398;9.646;2023-04-10T01:25:55;101716.75;;;2.85;100.00
8160;BME280;27404;52.398;9.646;2023-04-10T01:30:47;101709.28;;;2.79;100.00
8160;BME280;27404;52.398;9.646;2023-04-10T01:33:17;101700.16;;;2.80;100.00
8160;BME280;27404;52.398;9.646;2023-04-10T01:35:48;101705.50;;;2.72;100.00
8160;BME280;27404;52.398;9.646;2023-04-10T01:38:19;101690.94;;;2.64;100.00
8160;BME280;27404;52.398;9.646;2023-04-10T01:40:50;101692.31;;;2.69;100.00
8160;BME280;27404;52.398;9.646;2023-04-10T01:43:16;101690.19;;;2.54;100.00
8160;BME280;27404;52.398;9.646;2023-04-10T01:45:45;101689.91;;;2.39;100.00
8160;BME280;27404;52.398;9.646;2023-04-10T01:48:12;101685.50;;;2.38;100.00
8160;BME280;27404;52.398;9.646;2023-04-10T01:50:38;101687.91;;;2.23;100.00
8160;BME280;27404;52.398;9.646;2023-04-10T01:53:05;101691.00;;;2.28;100.00
8160;BME280;27404;52.398;9.646;2023-04-10T01:55:32;101695.97;;;2.41;100.00
8160;BME280;27404;52.398;9.646;2023-04-10T01:57:59;101679.88;;;2.49;100.00
8160;BME280;27404;52.398;9.646;2023-04-10T02:00:26;101685.72;;;2.63;100.00
8160;BME280;27404;52.398;9.646;2023-04-10T02:02:51;101683.22;;;2.70;100.00
8160;BME280;27404;52.398;9.646;2023-04-10T02:05:17;101678.19;;;2.75;100.00
8160;BME280;27404;52.398;9.646;2023-04-10T02:07:54;101673.16;;;2.80;100.00
8160;BME280;27404;52.398;9.646;2023-04-10T02:10:27;101668.78;;;2.79;100.00
8160;BME280;27404;52.398;9.646;2023-04-10T02:12:58;101673.22;;;2.88;100.00
8160;BME280;27404;52.398;9.646;2023-04-10T02:15:26;101664.81;;;2.91;100.00
8160;BME280;27404;52.398;9.646;2023-04-10T02:17:53;101658.81;;;2.79;100.00
8160;BME280;27404;52.398;9.646;2023-04-10T02:20:21;101656.91;;;2.72;100.00
8160;BME280;27404;52.398;9.646;2023-04-10T02:22:48;101658.81;;;2.79;100.00
8160;BME280;27404;52.398;9.646;2023-04-10T02:25:15;101649.44;;;2.65;100.00
8160;BME280;27404;52.398;9.646;2023-04-10T02:27:40;101651.50;;;2.72;100.00
8160;BME280;27404;52.398;9.646;2023-04-10T02:30:06;101655.09;;;2.80;100.00
8160;BME280;27404;52.398;9.646;2023-04-10T02:32:32;101646.63;;;2.75;100.00
8160;BME280;27404;52.398;9.646;2023-04-10T02:34:58;101650.31;;;2.74;100.00
8160;BME280;27404;52.398;9.646;2023-04-10T02:37:23;101649.94;;;2.87;100.00
8160;BME280;27404;52.398;9.646;2023-04-10T02:39:49;101650.28;;;2.92;100.00
8160;BME280;27404;52.398;9.646;2023-04-10T02:42:15;101638.63;;;2.92;100.00
8160;BME280;27404;52.398;9.646;2023-04-10T02:44:41;101640.97;;;2.87;100.00
8160;BME280;27404;52.398;9.646;2023-04-10T02:47:06;101644.34;;;2.89;100.00
8160;BME280;27404;52.398;9.646;2023-04-10T02:49:32;101638.25;;;2.87;100.00
8160;BME280;27404;52.398;9.646;2023-04-10T02:52:01;101634.56;;;2.88;100.00
8160;BME280;27404;52.398;9.646;2023-04-10T02:54:26;101635.09;;;2.91;100.00
8160;BME280;27404;52.398;9.646;2023-04-10T02:56:52;101634.47;;;2.98;100.00
8160;BME280;27404;52.398;9.646;2023-04-10T02:59:18;101630.56;;;3.00;100.00
8160;BME280;27404;52.398;9.646;2023-04-10T03:01:45;101635.25;;;2.90;100.00
8160;BME280;27404;52.398;9.646;2023-04-10T03:04:11;101629.84;;;2.90;100.00
8160;BME280;27404;52.398;9.646;2023-04-10T03:06:37;101636.47;;;2.95;100.00
8160;BME280;27404;52.398;9.646;2023-04-10T03:09:02;101630.06;;;2.96;100.00
8160;BME280;27404;52.398;9.646;2023-04-10T03:11:28;101628.50;;;2.94;100.00
8160;BME280;27404;52.398;9.646;2023-04-10T03:13:55;101617.72;;;2.94;100.00
8160;BME280;27404;52.398;9.646;2023-04-10T03:16:22;101623.28;;;2.92;100.00
8160;BME280;27404;52.398;9.646;2023-04-10T03:18:47;101616.69;;;2.95;100.00
8160;BME280;27404;52.398;9.646;2023-04-10T03:21:13;101611.47;;;2.93;100.00
8160;BME280;27404;52.398;9.646;2023-04-10T03:23:38;101611.16;;;2.96;100.00
8160;BME280;27404;52.398;9.646;2023-04-10T03:26:04;101610.09;;;2.89;100.00
8160;BME280;27404;52.398;9.646;2023-04-10T03:28:30;101605.84;;;2.87;100.00
8160;BME280;27404;52.398;9.646;2023-04-10T03:30:57;101608.50;;;2.78;100.00
8160;BME280;27404;52.398;9.646;2023-04-10T03:33:22;101607.03;;;2.84;100.00
8160;BME280;27404;52.398;9.646;2023-04-10T03:35:47;101601.91;;;2.73;100.00
8160;BME280;27404;52.398;9.646;2023-04-10T03:38:13;101593.94;;;2.63;100.00
8160;BME280;27404;52.398;9.646;2023-04-10T03:40:38;101594.63;;;2.65;100.00
8160;BME280;27404;52.398;9.646;2023-04-10T03:43:04;101599.84;;;2.66;100.00
8160;BME280;27404;52.398;9.646;2023-04-10T03:45:29;101597.97;;;2.67;100.00
8160;BME280;27404;52.398;9.646;2023-04-10T03:47:55;101593.44;;;2.67;100.00
8160;BME280;27404;52.398;9.646;2023-04-10T03:50:20;101591.84;;;2.57;100.00
8160;BME280;27404;52.398;9.646;2023-04-10T03:52:46;101594.19;;;2.51;100.00
8160;BME280;27404;52.398;9.646;2023-04-10T03:55:14;101594.94;;;2.62;100.00
8160;BME280;27404;52.398;9.646;2023-04-10T03:57:46;101594.81;;;2.72;100.00
8160;BME280;27404;52.398;9.646;2023-04-10T04:00:13;101588.03;;;2.67;100.00
8160;BME280;27404;52.398;9.646;2023-04-10T04:02:40;101592.25;;;2.70;100.00
8160;BME280;27404;52.398;9.646;2023-04-10T04:05:05;101594.75;;;2.63;100.00
8160;BME280;27404;52.398;9.646;2023-04-10T04:07:31;101596.72;;;2.53;100.00
8160;BME280;27404;52.398;9.646;2023-04-10T04:09:56;101599.16;;;2.64;100.00
8160;BME280;27404;52.398;9.646;2023-04-10T04:12:22;101590.38;;;2.62;100.00
8160;BME280;27404;52.398;9.646;2023-04-10T04:14:47;101590.41;;;2.71;100.00
8160;BME280;27404;52.398;9.646;2023-04-10T04:17:13;101589.22;;;2.73;100.00
8160;BME280;27404;52.398;9.646;2023-04-10T04:19:38;101581.13;;;2.65;100.00
8160;BME280;27404;52.398;9.646;2023-04-10T04:22:04;101585.09;;;2.87;100.00
8160;BME280;27404;52.398;9.646;2023-04-10T04:24:29;101577.31;;;2.84;100.00
8160;BME280;27404;52.398;9.646;2023-04-10T04:26:54;101574.63;;;2.84;100.00
8160;BME280;27404;52.398;9.646;2023-04-10T04:29:21;101580.34;;;2.81;100.00
8160;BME280;27404;52.398;9.646;2023-04-10T04:31:47;101579.22;;;2.92;100.00
8160;BME280;27404;52.398;9.646;2023-04-10T04:34:12;101569.59;;;2.89;100.00
8160;BME280;27404;52.398;9.646;2023-04-10T04:36:38;101578.25;;;3.01;100.00
8160;BME280;27404;52.398;9.646;2023-04-10T04:39:03;101575.06;;;3.14;100.00
8160;BME280;27404;52.398;9.646;2023-04-10T04:41:29;101579.19;;;3.26;100.00
8160;BME280;27404;52.398;9.646;2023-04-10T04:43:57;101582.25;;;3.32;100.00
8160;BME280;27404;52.398;9.646;2023-04-10T04:46:22;101575.81;;;3.33;100.00
8160;BME280;27404;52.398;9.646;2023-04-10T04:48:48;101582.59;;;3.37;100.00
8160;BME280;27404;52.398;9.646;2023-04-10T04:51:13;101580.94;;;3.52;100.00
8160;BME280;27404;52.398;9.646;2023-04-10T04:53:39;101573.19;;;3.66;100.00
8160;BME280;27404;52.398;9.646;2023-04-10T04:56:04;101576.22;;;3.71;100.00
8160;BME280;27404;52.398;9.646;2023-04-10T04:58:30;101576.41;;;3.78;100.00
8160;BME280;27404;52.398;9.646;2023-04-10T05:00:55;101577.47;;;3.93;100.00
8160;BME280;27404;52.398;9.646;2023-04-10T05:03:21;101573.22;;;3.99;100.00
8160;BME280;27404;52.398;9.646;2023-04-10T05:05:46;101573.22;;;4.24;100.00
8160;BME280;27404;52.398;9.646;2023-04-10T05:08:12;101575.25;;;4.30;100.00
8160;BME280;27404;52.398;9.646;2023-04-10T05:10:37;101579.59;;;4.39;100.00
8160;BME280;27404;52.398;9.646;2023-04-10T05:13:02;101577.41;;;4.51;100.00
8160;BME280;27404;52.398;9.646;2023-04-10T05:15:28;101575.66;;;4.67;100.00
8160;BME280;27404;52.398;9.646;2023-04-10T05:17:53;101584.25;;;4.87;100.00
8160;BME280;27404;52.398;9.646;2023-04-10T05:20:19;101578.09;;;5.01;100.00
8160;BME280;27404;52.398;9.646;2023-04-10T05:22:46;101571.50;;;5.04;100.00
8160;BME280;27404;52.398;9.646;2023-04-10T05:25:12;101573.63;;;5.17;100.00
8160;BME280;27404;52.398;9.646;2023-04-10T05:27:37;101570.91;;;5.17;100.00
8160;BME280;27404;52.398;9.646;2023-04-10T05:30:03;101571.06;;;5.24;100.00
8160;BME280;27404;52.398;9.646;2023-04-10T05:32:28;101575.94;;;5.28;100.00
8160;BME280;27404;52.398;9.646;2023-04-10T05:34:54;101574.84;;;5.46;100.00
8160;BME280;27404;52.398;9.646;2023-04-10T05:37:19;101580.44;;;5.44;100.00
8160;BME280;27404;52.398;9.646;2023-04-10T05:39:45;101580.22;;;5.54;100.00
8160;BME280;27404;52.398;9.646;2023-04-10T05:42:10;101581.56;;;5.58;100.00
8160;BME280;27404;52.398;9.646;2023-04-10T05:44:35;101571.94;;;5.71;100.00
8160;BME280;27404;52.398;9.646;2023-04-10T05:47:01;101580.94;;;5.71;100.00
8160;BME280;27404;52.398;9.646;2023-04-10T05:49:26;101579.50;;;5.84;100.00
8160;BME280;27404;52.398;9.646;2023-04-10T05:51:52;101576.91;;;5.90;100.00
8160;BME280;27404;52.398;9.646;2023-04-10T05:54:18;101578.53;;;6.00;100.00
8160;BME280;27404;52.398;9.646;2023-04-10T05:56:43;101576.50;;;6.02;100.00
8160;BME280;27404;52.398;9.646;2023-04-10T05:59:09;101577.13;;;6.12;100.00
8160;BME280;27404;52.398;9.646;2023-04-10T06:01:34;101579.84;;;6.27;100.00
8160;BME280;27404;52.398;9.646;2023-04-10T06:04:00;101576.44;;;6.48;100.00
8160;BME280;27404;52.398;9.646;2023-04-10T06:06:26;101576.63;;;6.62;100.00
8160;BME280;27404;52.398;9.646;2023-04-10T06:08:53;101572.59;;;7.18;100.00
8160;BME280;27404;52.398;9.646;2023-04-10T06:11:19;101573.41;;;8.70;100.00
8160;BME280;27404;52.398;9.646;2023-04-10T06:13:45;101575.75;;;9.84;100.00
8160;BME280;27404;52.398;9.646;2023-04-10T06:16:10;101567.22;;;11.07;100.00
8160;BME280;27404;52.398;9.646;2023-04-10T06:18:37;101571.63;;;12.24;97.83
8160;BME280;27404;52.398;9.646;2023-04-10T06:21:02;101566.91;;;13.50;88.17
8160;BME280;27404;52.398;9.646;2023-04-10T06:23:28;101572.25;;;13.45;79.57
8160;BME280;27404;52.398;9.646;2023-04-10T06:25:54;101567.75;;;12.76;78.53
8160;BME280;27404;52.398;9.646;2023-04-10T06:28:20;101559.25;;;11.51;85.21
8160;BME280;27404;52.398;9.646;2023-04-10T06:30:45;101556.66;;;10.51;93.51
8160;BME280;27404;52.398;9.646;2023-04-10T06:33:11;101551.38;;;9.76;99.10
8160;BME280;27404;52.398;9.646;2023-04-10T06:35:36;101556.13;;;9.47;100.00
8160;BME280;27404;52.398;9.646;2023-04-10T06:38:02;101549.72;;;9.13;100.00
8160;BME280;27404;52.398;9.646;2023-04-10T06:40:28;101547.34;;;9.03;100.00
8160;BME280;27404;52.398;9.646;2023-04-10T06:42:54;101549.59;;;8.86;100.00
8160;BME280;27404;52.398;9.646;2023-04-10T06:45:20;101546.19;;;8.77;100.00
8160;BME280;27404;52.398;9.646;2023-04-10T06:47:45;101543.88;;;8.74;100.00
8160;BME280;27404;52.398;9.646;2023-04-10T06:50:11;101552.47;;;8.78;100.00
8160;BME280;27404;52.398;9.646;2023-04-10T06:52:36;101545.56;;;8.82;100.00
8160;BME280;27404;52.398;9.646;2023-04-10T06:55:02;101543.53;;;8.91;100.00
8160;BME280;27404;52.398;9.646;2023-04-10T06:57:28;101547.81;;;9.07;100.00
8160;BME280;27404;52.398;9.646;2023-04-10T06:59:53;101540.50;;;9.14;100.00
8160;BME280;27404;52.398;9.646;2023-04-10T07:02:19;101543.97;;;9.01;100.00
8160;BME280;27404;52.398;9.646;2023-04-10T07:04:44;101545.44;;;8.97;100.00
8160;BME280;27404;52.398;9.646;2023-04-10T07:07:10;101531.47;;;9.13;100.00
8160;BME280;27404;52.398;9.646;2023-04-10T07:09:38;101545.38;;;9.25;100.00
8160;BME280;27404;52.398;9.646;2023-04-10T07:12:03;101542.44;;;9.33;100.00
8160;BME280;27404;52.398;9.646;2023-04-10T07:14:32;101539.06;;;9.31;100.00
8160;BME280;27404;52.398;9.646;2023-04-10T07:16:58;101538.28;;;9.44;100.00
8160;BME280;27404;52.398;9.646;2023-04-10T07:19:24;101535.97;;;9.41;100.00
8160;BME280;27404;52.398;9.646;2023-04-10T07:21:49;101533.88;;;9.50;100.00
8160;BME280;27404;52.398;9.646;2023-04-10T07:24:16;101536.19;;;9.53;100.00
8160;BME280;27404;52.398;9.646;2023-04-10T07:26:43;101537.28;;;9.59;100.00
8160;BME280;27404;52.398;9.646;2023-04-10T07:29:09;101534.09;;;9.62;100.00
8160;BME280;27404;52.398;9.646;2023-04-10T07:31:34;101525.50;;;9.52;100.00
8160;BME280;27404;52.398;9.646;2023-04-10T07:34:01;101520.03;;;9.58;100.00
8160;BME280;27404;52.398;9.646;2023-04-10T07:36:26;101520.91;;;9.66;100.00
8160;BME280;27404;52.398;9.646;2023-04-10T07:38:53;101519.44;;;9.76;100.00
8160;BME280;27404;52.398;9.646;2023-04-10T07:41:19;101520.06;;;9.78;100.00
8160;BME280;27404;52.398;9.646;2023-04-10T07:43:44;101519.88;;;9.80;100.00
8160;BME280;27404;52.398;9.646;2023-04-10T07:46:10;101510.59;;;9.95;100.00
8160;BME280;27404;52.398;9.646;2023-04-10T07:48:36;101516.72;;;10.03;100.00
8160;BME280;27404;52.398;9.646;2023-04-10T07:51:01;101510.00;;;10.13;100.00
8160;BME280;27404;52.398;9.646;2023-04-10T07:53:27;101515.03;;;10.22;100.00
8160;BME280;27404;52.398;9.646;2023-04-10T07:55:52;101517.34;;;10.26;100.00
8160;BME280;27404;52.398;9.646;2023-04-10T07:58:18;101519.84;;;10.27;100.00
8160;BME280;27404;52.398;9.646;2023-04-10T08:00:43;101523.00;;;10.31;100.00
8160;BME280;27404;52.398;9.646;2023-04-10T08:03:11;101507.22;;;10.33;100.00
8160;BME280;27404;52.398;9.646;2023-04-10T08:05:37;101510.38;;;10.50;100.00
8160;BME280;27404;52.398;9.646;2023-04-10T08:08:03;101508.06;;;10.60;100.00
8160;BME280;27404;52.398;9.646;2023-04-10T08:10:28;101504.03;;;10.70;100.00
8160;BME280;27404;52.398;9.646;2023-04-10T08:12:53;101498.28;;;10.91;100.00
8160;BME280;27404;52.398;9.646;2023-04-10T08:15:19;101503.38;;;10.81;100.00
8160;BME280;27404;52.398;9.646;2023-04-10T08:17:45;101493.22;;;10.95;99.62
8160;BME280;27404;52.398;9.646;2023-04-10T08:20:10;101487.72;;;10.95;98.69
8160;BME280;27404;52.398;9.646;2023-04-10T08:22:36;101487.50;;;10.96;97.74
8160;BME280;27404;52.398;9.646;2023-04-10T08:25:03;101485.88;;;10.89;97.96
8160;BME280;27404;52.398;9.646;2023-04-10T08:27:28;101484.59;;;10.91;97.78
8160;BME280;27404;52.398;9.646;2023-04-10T08:29:55;101489.63;;;10.94;98.83
8160;BME280;27404;52.398;9.646;2023-04-10T08:32:20;101489.78;;;11.06;97.69
8160;BME280;27404;52.398;9.646;2023-04-10T08:34:46;101484.06;;;11.15;96.40
8160;BME280;27404;52.398;9.646;2023-04-10T08:37:11;101485.66;;;11.29;95.58
8160;BME280;27404;52.398;9.646;2023-04-10T08:39:40;101490.22;;;11.42;94.11
8160;BME280;27404;52.398;9.646;2023-04-10T08:42:05;101481.47;;;11.59;94.35
8160;BME280;27404;52.398;9.646;2023-04-10T08:44:31;101477.13;;;11.76;93.36
8160;BME280;27404;52.398;9.646;2023-04-10T08:46:58;101474.78;;;11.80;92.46
8160;BME280;27404;52.398;9.646;2023-04-10T08:49:55;101467.66;;;12.04;92.37
8160;BME280;27404;52.398;9.646;2023-04-10T08:52:24;101462.59;;;12.26;89.98
8160;BME280;27404;52.398;9.646;2023-04-10T08:54:56;101469.94;;;12.26;87.82
8160;BME280;27404;52.398;9.646;2023-04-10T08:57:24;101462.97;;;12.49;85.81
8160;BME280;27404;52.398;9.646;2023-04-10T08:59:51;101463.44;;;12.64;85.52
8160;BME280;27404;52.398;9.646;2023-04-10T09:02:17;101467.56;;;12.73;84.00
8160;BME280;27404;52.398;9.646;2023-04-10T09:04:47;101460.72;;;12.95;82.48
8160;BME280;27404;52.398;9.646;2023-04-10T09:07:13;101455.47;;;12.93;82.92
8160;BME280;27404;52.398;9.646;2023-04-10T09:09:39;101456.69;;;12.97;82.61
8160;BME280;27404;52.398;9.646;2023-04-10T09:12:05;101449.91;;;13.00;81.42
8160;BME280;27404;52.398;9.646;2023-04-10T09:14:32;101442.63;;;13.06;81.79
8160;BME280;27404;52.398;9.646;2023-04-10T09:17:28;101438.59;;;13.08;80.80
8160;BME280;27404;52.398;9.646;2023-04-10T09:19:54;101430.66;;;13.18;81.53
8160;BME280;27404;52.398;9.646;2023-04-10T09:22:31;101426.97;;;13.25;79.64
8160;BME280;27404;52.398;9.646;2023-04-10T09:24:58;101420.91;;;13.35;79.69
8160;BME280;27404;52.398;9.646;2023-04-10T09:27:34;101418.19;;;13.58;78.92
8160;BME280;27404;52.398;9.646;2023-04-10T09:30:02;101410.22;;;13.57;77.98
8160;BME280;27404;52.398;9.646;2023-04-10T09:32:37;101399.81;;;13.71;77.35
8160;BME280;27404;52.398;9.646;2023-04-10T09:35:03;101403.69;;;13.82;76.58
8160;BME280;27404;52.398;9.646;2023-04-10T09:37:36;101410.38;;;13.86;75.85
8160;BME280;27404;52.398;9.646;2023-04-10T09:40:03;101378.81;;;13.88;76.32
8160;BME280;27404;52.398;9.646;2023-04-10T09:42:34;101378.78;;;14.12;75.96
8160;BME280;27404;52.398;9.646;2023-04-10T09:45:04;101368.09;;;14.28;76.70
8160;BME280;27404;52.398;9.646;2023-04-10T09:47:30;101373.72;;;14.33;74.57
8160;BME280;27404;52.398;9.646;2023-04-10T09:49:57;101370.34;;;14.43;74.12
8160;BME280;27404;52.398;9.646;2023-04-10T09:54:58;101365.75;;;14.72;74.56
8160;BME280;27404;52.398;9.646;2023-04-10T09:57:27;101364.06;;;14.59;71.82
8160;BME280;27404;52.398;9.646;2023-04-10T09:59:55;101357.59;;;14.77;72.33
8160;BME280;27404;52.398;9.646;2023-04-10T10:02:24;101354.19;;;14.87;69.92
8160;BME280;27404;52.398;9.646;2023-04-10T10:04:51;101349.25;;;14.89;70.43
8160;BME280;27404;52.398;9.646;2023-04-10T10:07:22;101343.59;;;14.67;68.23
8160;BME280;27404;52.398;9.646;2023-04-10T10:09:50;101337.81;;;14.80;70.33
8160;BME280;27404;52.398;9.646;2023-04-10T10:12:27;101339.50;;;14.82;67.68
8160;BME280;27404;52.398;9.646;2023-04-10T10:15:07;101335.56;;;14.77;66.88
8160;BME280;27404;52.398;9.646;2023-04-10T10:17:42;101322.88;;;14.76;67.24
8160;BME280;27404;52.398;9.646;2023-04-10T10:20:10;101321.81;;;14.94;67.00
8160;BME280;27404;52.398;9.646;2023-04-10T10:22:37;101320.34;;;15.04;66.22
8160;BME280;27404;52.398;9.646;2023-04-10T10:25:04;101316.81;;;15.08;63.55
8160;BME280;27404;52.398;9.646;2023-04-10T10:27:36;101309.06;;;14.88;63.48
8160;BME280;27404;52.398;9.646;2023-04-10T10:30:03;101309.91;;;14.89;62.48
8160;BME280;27404;52.398;9.646;2023-04-10T10:32:29;101307.56;;;14.80;61.52
8160;BME280;27404;52.398;9.646;2023-04-10T10:34:56;101297.13;;;14.83;60.57
8160;BME280;27404;52.398;9.646;2023-04-10T10:37:22;101284.78;;;14.85;58.88
8160;BME280;27404;52.398;9.646;2023-04-10T10:40:19;101279.53;;;15.01;57.94
8160;BME280;27404;52.398;9.646;2023-04-10T10:43:12;101273.34;;;15.10;60.43
8160;BME280;27404;52.398;9.646;2023-04-10T10:45:45;101269.34;;;15.01;55.89
8160;BME280;27404;52.398;9.646;2023-04-10T10:48:12;101267.69;;;15.17;56.13
8160;BME280;27404;52.398;9.646;2023-04-10T10:50:54;101267.94;;;15.16;55.21
8160;BME280;27404;52.398;9.646;2023-04-10T10:53:41;101260.84;;;14.86;53.34
8160;BME280;27404;52.398;9.646;2023-04-10T10:58:54;101245.81;;;14.93;53.26
8160;BME280;27404;52.398;9.646;2023-04-10T11:01:22;101250.75;;;14.91;54.40
8160;BME280;27404;52.398;9.646;2023-04-10T11:03:48;101247.22;;;14.96;53.63
8160;BME280;27404;52.398;9.646;2023-04-10T11:06:18;101243.16;;;14.99;54.33
8160;BME280;27404;52.398;9.646;2023-04-10T11:08:48;101233.63;;;15.06;55.51
8160;BME280;27404;52.398;9.646;2023-04-10T11:11:24;101220.59;;;15.19;54.72
8160;BME280;27404;52.398;9.646;2023-04-10T11:16:16;101213.91;;;15.32;54.22
8160;BME280;27404;52.398;9.646;2023-04-10T11:21:12;101203.59;;;15.22;53.51
8160;BME280;27404;52.398;9.646;2023-04-10T11:28:58;101179.91;;;15.43;52.96
8160;BME280;27404;52.398;9.646;2023-04-10T11:31:23;101189.59;;;15.46;53.22
8160;BME280;27404;52.398;9.646;2023-04-10T11:36:25;101158.94;;;15.42;53.76
8160;BME280;27404;52.398;9.646;2023-04-10T11:39:04;101149.09;;;15.46;52.89
8160;BME280;27404;52.398;9.646;2023-04-10T11:41:31;101147.19;;;15.47;52.94
8160;BME280;27404;52.398;9.646;2023-04-10T11:44:02;101145.16;;;15.64;54.03
8160;BME280;27404;52.398;9.646;2023-04-10T11:46:28;101143.63;;;15.74;54.03
8160;BME280;27404;52.398;9.646;2023-04-10T11:48:55;101137.50;;;15.89;54.85
8160;BME280;27404;52.398;9.646;2023-04-10T11:51:21;101129.25;;;15.94;55.02
8160;BME280;27404;52.398;9.646;2023-04-10T11:53:47;101126.81;;;15.97;55.50
8160;BME280;27404;52.398;9.646;2023-04-10T11:56:19;101130.38;;;16.20;56.24
8160;BME280;27404;52.398;9.646;2023-04-10T11:58:48;101131.56;;;16.35;56.45
8160;BME280;27404;52.398;9.646;2023-04-10T12:01:14;101123.97;;;16.47;54.22
8160;BME280;27404;52.398;9.646;2023-04-10T12:03:41;101126.09;;;16.40;53.19
8160;BME280;27404;52.398;9.646;2023-04-10T12:06:09;101122.00;;;16.42;53.00
8160;BME280;27404;52.398;9.646;2023-04-10T12:08:37;101112.88;;;16.42;52.71
8160;BME280;27404;52.398;9.646;2023-04-10T12:11:03;101102.53;;;16.60;53.84
8160;BME280;27404;52.398;9.646;2023-04-10T12:13:29;101093.41;;;16.54;52.41
8160;BME280;27404;52.398;9.646;2023-04-10T12:16:00;101092.41;;;16.76;53.55
8160;BME280;27404;52.398;9.646;2023-04-10T12:18:27;101088.34;;;16.83;53.06
8160;BME280;27404;52.398;9.646;2023-04-10T12:20:54;101081.34;;;16.70;52.42
8160;BME280;27404;52.398;9.646;2023-04-10T12:23:26;101075.88;;;16.81;53.17
8160;BME280;27404;52.398;9.646;2023-04-10T12:25:53;101077.41;;;17.04;53.56
8160;BME280;27404;52.398;9.646;2023-04-10T12:28:30;101083.78;;;17.05;50.17
8160;BME280;27404;52.398;9.646;2023-04-10T12:30:55;101073.06;;;17.13;48.09
8160;BME280;27404;52.398;9.646;2023-04-10T12:33:22;101066.19;;;17.21;48.95
8160;BME280;27404;52.398;9.646;2023-04-10T12:35:47;101066.56;;;17.45;49.87
8160;BME280;27404;52.398;9.646;2023-04-10T12:38:13;101064.03;;;17.44;49.80
8160;BME280;27404;52.398;9.646;2023-04-10T12:40:56;101061.03;;;17.56;49.42
8160;BME280;27404;52.398;9.646;2023-04-10T12:43:39;101057.16;;;17.57;48.57
8160;BME280;27404;52.398;9.646;2023-04-10T12:46:07;101056.63;;;17.55;48.75
8160;BME280;27404;52.398;9.646;2023-04-10T12:48:32;101063.28;;;17.69;49.90
8160;BME280;27404;52.398;9.646;2023-04-10T12:50:58;101070.22;;;17.77;47.19
8160;BME280;27404;52.398;9.646;2023-04-10T12:53:25;101059.38;;;17.50;47.62
8160;BME280;27404;52.398;9.646;2023-04-10T12:56:04;101042.00;;;17.75;48.05
8160;BME280;27404;52.398;9.646;2023-04-10T12:58:31;101041.78;;;18.02;47.64
8160;BME280;27404;52.398;9.646;2023-04-10T13:00:58;101043.16;;;18.26;48.90
8160;BME280;27404;52.398;9.646;2023-04-10T13:03:26;101043.41;;;17.98;47.47
8160;BME280;27404;52.398;9.646;2023-04-10T13:05:52;101041.78;;;18.08;47.09
8160;BME280;27404;52.398;9.646;2023-04-10T13:08:18;101033.75;;;18.06;46.00
8160;BME280;27404;52.398;9.646;2023-04-10T13:10:43;101031.25;;;18.41;46.80
8160;BME280;27404;52.398;9.646;2023-04-10T13:13:09;101028.78;;;18.24;47.00
8160;BME280;27404;52.398;9.646;2023-04-10T13:15:38;101014.06;;;18.49;46.22
8160;BME280;27404;52.398;9.646;2023-04-10T13:18:05;101017.94;;;18.43;46.72
8160;BME280;27404;52.398;9.646;2023-04-10T13:20:32;101002.69;;;18.61;46.07
8160;BME280;27404;52.398;9.646;2023-04-10T13:22:58;100996.38;;;18.40;45.69
8160;BME280;27404;52.398;9.646;2023-04-10T13:25:23;100990.81;;;18.50;46.25
8160;BME280;27404;52.398;9.646;2023-04-10T13:27:49;100988.59;;;18.52;45.70
8160;BME280;27404;52.398;9.646;2023-04-10T13:30:14;100992.44;;;18.61;44.63